createdAt,value
2023-01-12T00:02:24.936Z,100308.09
2023-01-12T00:04:53.055Z,100303.72
2023-01-12T00:07:21.101Z,100306.25
2023-01-12T00:09:49.043Z,100314.25
2023-01-12T00:12:17.007Z,100323.69
2023-01-12T00:14:44.697Z,100325.41
2023-01-12T00:17:16.677Z,100336.66
2023-01-12T00:19:44.643Z,100334.78
2023-01-12T00:22:12.620Z,100326.13
2023-01-12T00:24:48.144Z,100326.22
2023-01-12T00:27:19.619Z,100326.72
2023-01-12T00:29:49.220Z,100315.66
2023-01-12T00:32:20.221Z,100308.78
2023-01-12T00:34:48.942Z,100315.72
2023-01-12T00:37:19.457Z,100324.50
2023-01-12T00:40:00.894Z,100321.78
2023-01-12T00:42:48.301Z,100323.56
2023-01-12T00:45:22.173Z,100326.59
2023-01-12T00:47:50.814Z,100317.69
2023-01-12T00:50:19.625Z,100323.44
2023-01-12T00:52:47.506Z,100324.38
2023-01-12T00:55:16.327Z,100322.66
2023-01-12T00:57:44.444Z,100337.34
2023-01-12T01:00:14.037Z,100330.22
2023-01-12T01:02:42.343Z,100335.50
2023-01-12T01:05:10.350Z,100338.91
2023-01-12T01:07:38.587Z,100342.41
2023-01-12T01:10:07.296Z,100349.41
2023-01-12T01:12:34.764Z,100346.75
2023-01-12T01:15:04.403Z,100341.50
2023-01-12T01:17:32.586Z,100345.03
2023-01-12T01:20:01.256Z,100349.97
2023-01-12T01:22:28.781Z,100351.59
2023-01-12T01:24:56.686Z,100348.19
2023-01-12T01:27:24.150Z,100349.09
2023-01-12T01:29:51.819Z,100355.22
2023-01-12T01:32:19.693Z,100352.56
2023-01-12T01:34:48.210Z,100365.53
2023-01-12T01:37:16.090Z,100355.84
2023-01-12T01:39:45.228Z,100351.44
2023-01-12T01:42:28.272Z,100360.38
2023-01-12T01:45:06.106Z,100365.44
2023-01-12T01:47:40.180Z,100360.09
2023-01-12T01:50:23.771Z,100358.97
2023-01-12T01:52:54.168Z,100368.78
2023-01-12T01:55:36.322Z,100360.81
2023-01-12T01:58:20.246Z,100366.22
2023-01-12T02:00:48.719Z,100373.97
2023-01-12T02:03:16.992Z,100363.03
2023-01-12T02:05:47.373Z,100369.88
2023-01-12T02:08:22.483Z,100360.19
2023-01-12T02:10:51.823Z,100360.19
2023-01-12T02:13:58.834Z,100367.81
2023-01-12T02:16:29.237Z,100373.69
2023-01-12T02:19:36.984Z,100378.97
2023-01-12T02:22:23.403Z,100380.59
2023-01-12T02:25:20.295Z,100378.06
2023-01-12T02:28:00.836Z,100360.44
2023-01-12T02:30:39.401Z,100362.19
2023-01-12T02:33:18.556Z,100369.09
2023-01-12T02:36:05.817Z,100367.31
2023-01-12T02:38:43.663Z,100374.34
2023-01-12T02:41:45.777Z,100369.81
2023-01-12T02:44:40.170Z,100375.78
2023-01-12T02:47:14.084Z,100378.41
2023-01-12T02:49:47.200Z,100366.31
2023-01-12T02:52:17.868Z,100357.34
2023-01-12T02:54:48.295Z,100357.31
2023-01-12T02:57:16.764Z,100353.59
2023-01-12T02:59:45.796Z,100360.66
2023-01-12T03:02:16.771Z,100361.66
2023-01-12T03:04:45.000Z,100353.38
2023-01-12T03:07:42.210Z,100362.63
2023-01-12T03:10:40.647Z,100363.81
2023-01-12T03:13:11.560Z,100360.88
2023-01-12T03:15:47.943Z,100366.69
2023-01-12T03:18:18.792Z,100362.44
2023-01-12T03:21:00.923Z,100365.84
2023-01-12T03:23:33.623Z,100352.56
2023-01-12T03:26:03.499Z,100350.97
2023-01-12T03:28:34.528Z,100350.94
2023-01-12T03:31:09.226Z,100356.97
2023-01-12T03:33:40.187Z,100353.38
2023-01-12T03:36:08.269Z,100345.78
2023-01-12T03:38:56.357Z,100344.97
2023-01-12T03:41:58.018Z,100344.69
2023-01-12T03:44:53.961Z,100346.28
2023-01-12T03:47:25.026Z,100333.97
2023-01-12T03:50:10.837Z,100347.25
2023-01-12T03:52:40.163Z,100342.03
2023-01-12T03:55:12.410Z,100345.56
2023-01-12T03:57:40.146Z,100348.22
2023-01-12T04:00:11.809Z,100346.44
2023-01-12T04:02:45.579Z,100344.69
2023-01-12T04:05:14.500Z,100347.22
2023-01-12T04:07:42.738Z,100356.09
2023-01-12T04:10:10.871Z,100352.69
2023-01-12T04:12:38.429Z,100345.63
2023-01-12T04:15:07.373Z,100340.31
2023-01-12T04:17:35.619Z,100342.94
2023-01-12T04:20:05.129Z,100343.00
2023-01-12T04:22:45.652Z,100341.16
2023-01-12T04:25:19.537Z,100333.69
2023-01-12T04:27:51.605Z,100329.00
2023-01-12T04:30:23.621Z,100330.12
2023-01-12T04:32:51.638Z,100340.00
2023-01-12T04:35:19.202Z,100340.53
2023-01-12T04:37:47.636Z,100338.97
2023-01-12T04:40:16.987Z,100341.72
2023-01-12T04:43:01.955Z,100342.63
2023-01-12T04:45:33.899Z,100344.09
2023-01-12T04:48:06.451Z,100355.50
2023-01-12T04:50:34.667Z,100350.84
2023-01-12T04:53:03.954Z,100353.56
2023-01-12T04:55:31.876Z,100337.09
2023-01-12T04:58:01.112Z,100347.75
2023-01-12T05:00:29.598Z,100343.06
2023-01-12T05:03:02.105Z,100342.09
2023-01-12T05:05:31.862Z,100345.78
2023-01-12T05:08:19.432Z,100349.97
2023-01-12T05:10:51.438Z,100345.75
2023-01-12T05:13:20.291Z,100342.34
2023-01-12T05:15:49.263Z,100356.44
2023-01-12T05:18:18.608Z,100359.50
2023-01-12T05:20:46.489Z,100362.31
2023-01-12T05:23:14.556Z,100376.44
2023-01-12T05:25:47.908Z,100375.34
2023-01-12T05:28:20.825Z,100369.91
2023-01-12T05:30:55.514Z,100375.25
2023-01-12T05:33:25.234Z,100369.75
2023-01-12T05:35:52.810Z,100362.94
2023-01-12T05:38:20.954Z,100354.09
2023-01-12T05:40:49.232Z,100359.28
2023-01-12T05:43:35.496Z,100356.53
2023-01-12T05:46:05.335Z,100369.63
2023-01-12T05:48:34.337Z,100373.28
2023-01-12T05:51:07.762Z,100367.06
2023-01-12T05:53:43.517Z,100364.53
2023-01-12T05:56:27.601Z,100375.00
2023-01-12T05:58:58.792Z,100370.66
2023-01-12T06:01:29.977Z,100362.37
2023-01-12T06:04:00.101Z,100355.72
2023-01-12T06:06:31.838Z,100369.47
2023-01-12T06:09:01.489Z,100365.16
2023-01-12T06:11:51.785Z,100365.91
2023-01-12T06:14:22.937Z,100361.56
2023-01-12T06:16:52.027Z,100358.97
2023-01-12T06:19:19.994Z,100358.97
2023-01-12T06:21:50.122Z,100357.31
2023-01-12T06:24:18.837Z,100364.44
2023-01-12T06:26:46.840Z,100373.50
2023-01-12T06:29:14.846Z,100368.25
2023-01-12T06:31:43.917Z,100381.44
2023-01-12T06:34:14.294Z,100383.16
2023-01-12T06:36:41.966Z,100376.94
2023-01-12T06:39:11.898Z,100381.97
2023-01-12T06:41:59.527Z,100393.31
2023-01-12T06:44:27.717Z,100400.31
2023-01-12T06:46:56.184Z,100408.31
2023-01-12T06:49:24.144Z,100418.81
2023-01-12T06:51:52.130Z,100420.78
2023-01-12T06:54:20.539Z,100412.78
2023-01-12T06:56:49.062Z,100419.16
2023-01-12T06:59:18.512Z,100418.94
2023-01-12T07:01:46.874Z,100417.25
2023-01-12T07:04:14.954Z,100415.25
2023-01-12T07:06:42.972Z,100425.75
2023-01-12T07:09:11.086Z,100422.12
2023-01-12T07:11:39.996Z,100422.34
2023-01-12T07:14:09.721Z,100414.16
2023-01-12T07:16:38.117Z,100419.63
2023-01-12T07:19:07.717Z,100417.53
2023-01-12T07:21:36.041Z,100415.75
2023-01-12T07:24:07.459Z,100420.97
2023-01-12T07:26:37.977Z,100427.94
2023-01-12T07:29:11.397Z,100423.19
2023-01-12T07:31:41.604Z,100426.87
2023-01-12T07:34:10.101Z,100441.66
2023-01-12T07:36:46.522Z,100437.03
2023-01-12T07:39:15.136Z,100452.12
2023-01-12T07:42:02.499Z,100445.22
2023-01-12T07:44:36.576Z,100452.94
2023-01-12T07:47:04.925Z,100454.66
2023-01-12T07:49:33.587Z,100458.06
2023-01-12T07:52:11.534Z,100452.56
2023-01-12T07:54:45.671Z,100447.34
2023-01-12T07:57:13.717Z,100452.53
2023-01-12T07:59:41.799Z,100444.44
2023-01-12T08:02:16.638Z,100452.31
2023-01-12T08:04:48.574Z,100458.38
2023-01-12T08:07:17.689Z,100456.59
2023-01-12T08:09:46.725Z,100461.50
2023-01-12T08:12:14.498Z,100463.28
2023-01-12T08:14:42.976Z,100457.16
2023-01-12T08:17:18.827Z,100464.06
2023-01-12T08:19:55.854Z,100455.34
2023-01-12T08:22:28.915Z,100462.88
2023-01-12T08:25:01.433Z,100466.75
2023-01-12T08:27:31.244Z,100463.38
2023-01-12T08:30:11.571Z,100468.25
2023-01-12T08:32:39.824Z,100467.28
2023-01-12T08:35:07.852Z,100457.69
2023-01-12T08:37:36.561Z,100462.12
2023-01-12T08:40:09.463Z,100460.56
2023-01-12T08:42:37.810Z,100471.97
2023-01-12T08:45:09.828Z,100471.94
2023-01-12T08:47:41.563Z,100474.31
2023-01-12T08:50:11.525Z,100477.81
2023-01-12T08:52:39.212Z,100477.81
2023-01-12T08:55:07.761Z,100467.56
2023-01-12T08:57:36.763Z,100468.38
2023-01-12T09:00:06.764Z,100467.56
2023-01-12T09:02:36.693Z,100469.69
2023-01-12T09:05:06.694Z,100479.47
2023-01-12T09:07:34.953Z,100476.06
2023-01-12T09:10:11.794Z,100473.75
2023-01-12T09:12:41.759Z,100465.53
2023-01-12T09:15:10.868Z,100467.87
2023-01-12T09:17:40.101Z,100474.22
2023-01-12T09:20:08.304Z,100464.41
2023-01-12T09:22:37.038Z,100461.13
2023-01-12T09:25:05.081Z,100476.38
2023-01-12T09:27:33.341Z,100469.66
2023-01-12T09:30:01.246Z,100466.72
2023-01-12T09:32:36.693Z,100469.22
2023-01-12T09:35:07.483Z,100461.03
2023-01-12T09:37:35.482Z,100470.56
2023-01-12T09:40:04.914Z,100471.41
2023-01-12T09:42:52.544Z,100473.47
2023-01-12T09:45:45.506Z,100465.59
2023-01-12T09:48:22.743Z,100462.59
2023-01-12T09:51:11.801Z,100464.72
2023-01-12T09:53:43.179Z,100464.88
2023-01-12T09:56:15.451Z,100461.53
2023-01-12T09:59:11.832Z,100461.72
2023-01-12T10:01:40.339Z,100453.16
2023-01-12T10:04:09.905Z,100445.84
2023-01-12T10:06:39.812Z,100453.34
2023-01-12T10:09:14.005Z,100456.03
2023-01-12T10:11:55.086Z,100454.41
2023-01-12T10:14:26.723Z,100443.16
2023-01-12T10:17:00.323Z,100446.19
2023-01-12T10:19:36.309Z,100446.91
2023-01-12T10:22:39.551Z,100438.31
2023-01-12T10:25:27.330Z,100433.22
2023-01-12T10:27:57.899Z,100440.47
2023-01-12T10:30:37.733Z,100444.37
2023-01-12T10:33:19.770Z,100441.06
2023-01-12T10:35:52.658Z,100440.72
2023-01-12T10:38:42.029Z,100429.66
2023-01-12T10:41:32.556Z,100445.69
2023-01-12T10:44:01.530Z,100441.28
2023-01-12T10:46:32.888Z,100440.19
2023-01-12T10:49:21.974Z,100432.72
2023-01-12T10:51:59.503Z,100435.91
2023-01-12T10:54:33.742Z,100423.63
2023-01-12T10:57:14.580Z,100431.22
2023-01-12T10:59:51.952Z,100419.97
2023-01-12T11:02:20.621Z,100427.69
2023-01-12T11:04:52.469Z,100419.19
2023-01-12T11:07:31.653Z,100418.19
2023-01-12T11:10:26.426Z,100421.91
2023-01-12T11:13:03.818Z,100409.22
2023-01-12T11:15:38.987Z,100404.03
2023-01-12T11:18:39.687Z,100399.91
2023-01-12T11:21:13.706Z,100412.19
2023-01-12T11:23:44.519Z,100409.78
2023-01-12T11:26:23.930Z,100414.06
2023-01-12T11:28:54.876Z,100405.00
2023-01-12T11:31:29.744Z,100399.00
2023-01-12T11:34:17.077Z,100388.41
2023-01-12T11:36:48.162Z,100390.31
2023-01-12T11:39:20.643Z,100391.53
2023-01-12T11:42:13.881Z,100386.66
2023-01-12T11:44:58.878Z,100394.84
2023-01-12T11:47:31.521Z,100377.00
2023-01-12T11:50:03.054Z,100373.44
2023-01-12T11:52:31.295Z,100382.53
2023-01-12T11:54:59.114Z,100381.88
2023-01-12T11:57:49.684Z,100378.56
2023-01-12T12:00:23.781Z,100383.53
2023-01-12T12:03:01.411Z,100384.25
2023-01-12T12:05:41.322Z,100375.75
2023-01-12T12:08:28.703Z,100375.38
2023-01-12T12:10:59.767Z,100377.31
2023-01-12T12:13:31.123Z,100383.22
2023-01-12T12:16:39.838Z,100371.59
2023-01-12T12:19:35.273Z,100376.09
2023-01-12T12:22:41.868Z,100385.56
2023-01-12T12:25:23.113Z,100380.75
2023-01-12T12:28:18.708Z,100378.94
2023-01-12T12:31:23.146Z,100376.00
2023-01-12T12:34:00.874Z,100367.81
2023-01-12T12:36:39.788Z,100359.06
2023-01-12T12:39:30.152Z,100359.25
2023-01-12T12:42:33.045Z,100357.41
2023-01-12T12:45:18.538Z,100355.69
2023-01-12T12:47:56.831Z,100359.97
2023-01-12T12:50:50.193Z,100350.16
2023-01-12T12:53:26.986Z,100351.19
2023-01-12T12:56:05.555Z,100338.66
2023-01-12T12:58:53.544Z,100344.34
2023-01-12T13:04:02.680Z,100343.59
2023-01-12T13:06:49.780Z,100335.63
2023-01-12T13:09:21.892Z,100333.47
2023-01-12T13:11:59.848Z,100337.59
2023-01-12T13:14:39.913Z,100342.47
2023-01-12T13:17:23.510Z,100341.25
2023-01-12T13:20:02.240Z,100342.56
2023-01-12T13:22:32.714Z,100345.44
2023-01-12T13:25:20.712Z,100336.09
2023-01-12T13:27:58.948Z,100344.03
2023-01-12T13:30:35.539Z,100350.56
2023-01-12T13:33:23.067Z,100335.28
2023-01-12T13:35:51.236Z,100342.16
2023-01-12T13:38:37.727Z,100342.25
2023-01-12T13:41:17.863Z,100349.84
2023-01-12T13:43:48.788Z,100351.03
2023-01-12T13:46:25.152Z,100344.22
2023-01-12T13:49:23.546Z,100345.22
2023-01-12T13:51:57.816Z,100348.41
2023-01-12T13:54:30.115Z,100353.22
2023-01-12T13:57:10.835Z,100349.16
2023-01-12T13:59:58.536Z,100347.25
2023-01-12T14:02:32.986Z,100341.22
2023-01-12T14:05:23.202Z,100346.78
2023-01-12T14:08:17.061Z,100346.53
2023-01-12T14:11:00.207Z,100345.34
2023-01-12T14:13:50.964Z,100340.41
2023-01-12T14:17:05.336Z,100344.53
2023-01-12T14:19:33.511Z,100347.34
2023-01-12T14:22:04.509Z,100341.66
2023-01-12T14:24:36.674Z,100329.72
2023-01-12T14:27:28.346Z,100331.84
2023-01-12T14:30:02.588Z,100333.50
2023-01-12T14:35:17.564Z,100332.75
2023-01-12T14:38:00.063Z,100330.00
2023-01-12T14:40:32.298Z,100330.03
2023-01-12T14:43:23.493Z,100326.31
2023-01-12T14:46:16.521Z,100326.50
2023-01-12T14:48:59.658Z,100338.00
2023-01-12T14:51:40.517Z,100331.34
2023-01-12T14:54:09.507Z,100327.31
2023-01-12T14:56:39.460Z,100322.13
2023-01-12T14:59:22.541Z,100326.53
2023-01-12T15:01:54.791Z,100327.38
2023-01-12T15:04:32.635Z,100334.47
2023-01-12T15:07:13.514Z,100340.47
2023-01-12T15:09:56.470Z,100333.44
2023-01-12T15:12:31.935Z,100330.81
2023-01-12T15:15:17.345Z,100324.84
2023-01-12T15:17:53.518Z,100325.03
2023-01-12T15:23:56.162Z,100324.91
2023-01-12T15:26:27.565Z,100334.63
2023-01-12T15:29:02.493Z,100334.44
2023-01-12T15:31:40.674Z,100336.34
2023-01-12T15:34:10.724Z,100335.06
2023-01-12T15:36:39.692Z,100340.03
2023-01-12T15:39:19.555Z,100346.88
2023-01-12T15:42:07.370Z,100340.75
2023-01-12T15:44:39.547Z,100333.38
2023-01-12T15:47:18.502Z,100334.31
2023-01-12T15:49:53.529Z,100345.56
2023-01-12T15:52:25.322Z,100346.34
2023-01-12T15:54:58.745Z,100345.13
2023-01-12T15:57:35.478Z,100351.16
2023-01-12T16:00:08.877Z,100351.41
2023-01-12T16:02:42.650Z,100345.31
2023-01-12T16:05:11.744Z,100354.94
2023-01-12T16:07:40.197Z,100361.69
2023-01-12T16:10:12.921Z,100367.84
2023-01-12T16:12:47.979Z,100361.12
2023-01-12T16:18:00.524Z,100363.88
2023-01-12T16:20:30.744Z,100361.53
2023-01-12T16:23:04.954Z,100362.06
2023-01-12T16:25:35.681Z,100361.84
2023-01-12T16:28:11.683Z,100357.44
2023-01-12T16:30:54.514Z,100361.97
2023-01-12T16:36:17.597Z,100360.78
2023-01-12T16:38:50.997Z,100362.72
2023-01-12T16:41:22.593Z,100364.28
2023-01-12T16:43:55.070Z,100364.84
2023-01-12T16:46:28.270Z,100362.94
2023-01-12T16:49:11.452Z,100368.31
2023-01-12T16:51:42.151Z,100373.50
2023-01-12T16:54:20.153Z,100370.09
2023-01-12T16:56:52.381Z,100371.16
2023-01-12T16:59:25.607Z,100377.38
2023-01-12T17:07:28.968Z,100374.69
2023-01-12T17:10:00.716Z,100383.25
2023-01-12T17:12:32.854Z,100377.81
2023-01-12T17:15:04.224Z,100376.94
2023-01-12T17:20:10.697Z,100377.13
2023-01-12T17:22:48.495Z,100369.34
2023-01-12T17:25:20.935Z,100372.91
2023-01-12T17:27:52.997Z,100374.91
2023-01-12T17:30:23.758Z,100378.56
2023-01-12T17:32:57.747Z,100369.91
2023-01-12T17:35:28.532Z,100368.56
2023-01-12T17:37:59.911Z,100374.47
2023-01-12T17:40:34.487Z,100364.28
2023-01-12T17:43:15.100Z,100373.94
2023-01-12T17:45:47.833Z,100375.59
2023-01-12T17:48:22.538Z,100376.44
2023-01-12T17:53:34.212Z,100380.84
2023-01-12T17:56:09.847Z,100387.31
2023-01-12T17:58:56.598Z,100379.50
2023-01-12T18:01:34.055Z,100381.34
2023-01-12T18:04:08.416Z,100383.97
2023-01-12T18:11:56.435Z,100376.25
2023-01-12T18:14:40.494Z,100375.25
2023-01-12T18:17:16.724Z,100382.06
2023-01-12T18:19:53.705Z,100378.12
2023-01-12T18:22:25.880Z,100378.09
2023-01-12T18:24:54.119Z,100375.44
2023-01-12T18:27:23.812Z,100372.87
2023-01-12T18:30:15.699Z,100378.09
2023-01-12T18:32:56.433Z,100382.59
2023-01-12T18:35:28.412Z,100386.28
2023-01-12T18:37:58.723Z,100387.13
2023-01-12T18:40:35.567Z,100390.56
2023-01-12T18:45:50.472Z,100376.69
2023-01-12T18:48:26.470Z,100384.81
2023-01-12T18:51:26.621Z,100383.97
2023-01-12T18:53:55.417Z,100393.47
2023-01-12T18:56:33.570Z,100389.06
2023-01-12T18:59:04.267Z,100379.37
2023-01-12T19:04:18.493Z,100378.50
2023-01-12T19:06:59.235Z,100378.47
2023-01-12T19:09:37.629Z,100380.38
2023-01-12T19:12:07.472Z,100370.09
2023-01-12T19:17:46.491Z,100366.53
2023-01-12T19:20:32.023Z,100368.25
2023-01-12T19:23:30.198Z,100368.28
2023-01-12T19:26:41.136Z,100368.44
2023-01-12T19:29:10.552Z,100360.56
2023-01-12T19:31:44.669Z,100353.66
2023-01-12T19:34:14.420Z,100354.50
2023-01-12T19:36:44.504Z,100344.00
2023-01-12T19:39:30.463Z,100336.16
2023-01-12T19:42:18.500Z,100333.69
2023-01-12T19:44:47.143Z,100329.22
2023-01-12T19:47:17.778Z,100333.78
2023-01-12T19:49:50.583Z,100325.03
2023-01-12T19:52:23.635Z,100330.34
2023-01-12T19:57:48.889Z,100324.94
2023-01-12T20:00:20.481Z,100326.81
2023-01-12T20:05:33.449Z,100332.06
2023-01-12T20:10:42.587Z,100328.59
2023-01-12T20:13:18.323Z,100329.44
2023-01-12T20:15:53.419Z,100333.03
2023-01-12T20:18:22.377Z,100339.03
2023-01-12T20:21:02.754Z,100342.66
2023-01-12T20:23:35.699Z,100343.47
2023-01-12T20:29:00.193Z,100348.22
2023-01-12T20:31:30.555Z,100340.69
2023-01-12T20:34:02.507Z,100358.87
2023-01-12T20:36:30.670Z,100357.78
2023-01-12T20:38:59.127Z,100356.91
2023-01-12T20:41:29.597Z,100359.69
2023-01-12T20:44:11.915Z,100354.38
2023-01-12T20:46:47.507Z,100356.19
2023-01-12T20:49:20.353Z,100350.88
2023-01-12T20:51:53.949Z,100347.59
2023-01-12T20:54:22.545Z,100345.75
2023-01-12T20:56:50.747Z,100345.16
2023-01-12T21:04:37.479Z,100356.16
2023-01-12T21:07:09.747Z,100354.63
2023-01-12T21:09:40.473Z,100350.44
2023-01-12T21:12:18.814Z,100350.19
2023-01-12T21:14:48.047Z,100359.13
2023-01-12T21:17:21.373Z,100352.94
2023-01-12T21:19:54.146Z,100360.66
2023-01-12T21:22:27.422Z,100355.56
2023-01-12T21:25:03.435Z,100352.00
2023-01-12T21:27:35.402Z,100359.91
2023-01-12T21:30:13.127Z,100358.16
2023-01-12T21:32:43.546Z,100344.22
2023-01-12T21:35:15.448Z,100344.22
2023-01-12T21:37:45.819Z,100339.91
2023-01-12T21:40:19.621Z,100346.00
2023-01-12T21:43:10.702Z,100350.31
2023-01-12T21:45:46.721Z,100353.16
2023-01-12T21:48:17.942Z,100355.69
2023-01-12T21:50:47.684Z,100358.59
2023-01-12T21:53:22.375Z,100353.28
2023-01-12T21:55:59.159Z,100343.59
2023-01-12T21:58:31.898Z,100348.91
2023-01-12T22:01:07.652Z,100355.78
2023-01-12T22:03:41.433Z,100341.84
2023-01-12T22:06:13.532Z,100340.91
2023-01-12T22:08:42.069Z,100339.28
2023-01-12T22:11:14.360Z,100343.59
2023-01-12T22:13:44.164Z,100337.66
2023-01-12T22:16:13.854Z,100335.59
2023-01-12T22:18:46.587Z,100335.84
2023-01-12T22:21:17.461Z,100339.41
2023-01-12T22:23:47.106Z,100331.44
2023-01-12T22:26:16.493Z,100334.94
2023-01-12T22:28:50.644Z,100327.84
2023-01-12T22:31:24.199Z,100327.91
2023-01-12T22:33:55.870Z,100320.34
2023-01-12T22:36:25.450Z,100323.97
2023-01-12T22:38:53.343Z,100325.34
2023-01-12T22:43:56.357Z,100312.19
2023-01-12T22:46:26.526Z,100316.06
2023-01-12T22:51:33.772Z,100314.13
2023-01-12T22:54:05.331Z,100307.16
2023-01-12T22:56:33.663Z,100297.50
2023-01-12T22:59:01.236Z,100301.81
2023-01-12T23:01:28.799Z,100298.44
2023-01-12T23:03:58.392Z,100301.03
2023-01-12T23:06:27.008Z,100296.59
2023-01-12T23:08:56.966Z,100298.25
2023-01-12T23:11:26.629Z,100300.03
2023-01-12T23:13:55.191Z,100298.25
2023-01-12T23:16:24.635Z,100301.69
2023-01-12T23:18:55.551Z,100302.72
2023-01-12T23:21:27.661Z,100309.38
2023-01-12T23:23:57.649Z,100314.00
2023-01-12T23:26:31.314Z,100315.78
2023-01-12T23:29:00.742Z,100319.31
2023-01-12T23:31:33.199Z,100316.59
2023-01-12T23:34:01.811Z,100308.84
2023-01-12T23:36:31.863Z,100314.97
2023-01-12T23:39:01.603Z,100310.44
2023-01-12T23:41:32.618Z,100307.09
2023-01-12T23:44:02.788Z,100322.78
2023-01-12T23:46:34.064Z,100311.53
2023-01-12T23:49:02.758Z,100304.44
2023-01-12T23:51:32.226Z,100304.47
2023-01-12T23:54:01.311Z,100314.03
2023-01-12T23:56:32.252Z,100308.78
2023-01-12T23:59:00.771Z,100316.66
